Time;durP1;ratioP1;P1;durP2;ratioP2;P2;SDS_P1;SDS_P2;PMS_P1;PMS_P2;Temp;Humidity;BMP_temperature;BMP_pressure;BME280_temperature;BME280_humidity;BME280_pressure;Samples;Min_cycle;Max_cycle;Signal;HPM_P1;HPM_P2
2022/12/21 00:00:24;;;;;;;20.48;10.73;;;;;;;;;;5032349;28;20590;-89
2022/12/21 00:02:49;;;;;;;24.25;11.57;;;;;;;;;;5033300;28;20111;-89
2022/12/21 00:05:14;;;;;;;20.08;9.85;;;;;;;;;;5032790;28;20155;-89
2022/12/21 00:07:40;;;;;;;18.80;9.65;;;;;;;;;;5049046;28;20029;-88
2022/12/21 00:10:05;;;;;;;16.25;8.65;;;;;;;;;;5033176;28;20072;-88
2022/12/21 00:12:30;;;;;;;18.83;10.18;;;;;;;;;;5030829;28;20029;-89
2022/12/21 00:14:56;;;;;;;19.35;9.55;;;;;;;;;;5032832;28;20014;-89
2022/12/21 00:17:21;;;;;;;18.77;9.70;;;;;;;;;;5032062;28;20469;-88
2022/12/21 00:19:46;;;;;;;18.90;9.07;;;;;;;;;;5032136;28;20044;-88
2022/12/21 00:22:11;;;;;;;28.17;12.55;;;;;;;;;;5031485;28;20049;-89
2022/12/21 00:24:36;;;;;;;21.00;10.30;;;;;;;;;;5033214;28;20377;-89
2022/12/21 00:27:02;;;;;;;19.75;10.13;;;;;;;;;;5032938;28;20021;-88
2022/12/21 00:29:27;;;;;;;20.83;10.60;;;;;;;;;;5032216;28;20098;-89
2022/12/21 00:31:53;;;;;;;20.48;10.98;;;;;;;;;;5032221;28;20018;-89
2022/12/21 00:34:19;;;;;;;21.33;10.80;;;;;;;;;;5031896;28;20452;-88
2022/12/21 00:36:44;;;;;;;21.83;10.98;;;;;;;;;;5031510;28;20025;-88
2022/12/21 00:39:09;;;;;;;21.20;11.18;;;;;;;;;;5019616;28;20070;-89
2022/12/21 00:41:34;;;;;;;23.35;11.35;;;;;;;;;;5032074;28;20017;-89
2022/12/21 00:43:59;;;;;;;23.50;11.35;;;;;;;;;;5031727;28;20020;-88
2022/12/21 00:46:30;;;;;;;23.05;11.73;;;;;;;;;;5031362;28;20166;-89
2022/12/21 00:48:56;;;;;;;22.80;12.07;;;;;;;;;;5031826;28;20025;-89
2022/12/21 00:51:22;;;;;;;23.38;11.20;;;;;;;;;;5045098;28;20017;-89
2022/12/21 00:53:47;;;;;;;22.15;11.40;;;;;;;;;;5024366;28;20044;-88
2022/12/21 00:56:14;;;;;;;20.33;11.48;;;;;;;;;;5031544;28;20013;-88
2022/12/21 00:58:39;;;;;;;20.98;11.70;;;;;;;;;;5030808;28;20033;-89
2022/12/21 01:01:06;;;;;;;20.63;11.10;;;;;;;;;;5030493;28;20025;-89
2022/12/21 01:03:31;;;;;;;19.42;10.93;;;;;;;;;;5032951;28;20026;-88
2022/12/21 01:05:56;;;;;;;22.27;11.13;;;;;;;;;;5031650;28;20026;-89
2022/12/21 01:08:22;;;;;;;26.75;11.07;;;;;;;;;;5031756;28;20100;-88
2022/12/21 01:10:48;;;;;;;18.85;10.02;;;;;;;;;;5030418;28;20029;-87
2022/12/21 01:13:14;;;;;;;18.42;9.75;;;;;;;;;;5030279;28;20030;-88
2022/12/21 01:15:43;;;;;;;19.98;10.43;;;;;;;;;;5037702;28;20393;-89
2022/12/21 01:18:10;;;;;;;20.23;10.73;;;;;;;;;;5044274;28;20029;-88
2022/12/21 01:20:39;;;;;;;21.02;10.88;;;;;;;;;;5032367;28;20706;-87
2022/12/21 01:23:05;;;;;;;24.35;11.18;;;;;;;;;;5029760;28;20527;-88
2022/12/21 01:25:30;;;;;;;19.58;9.50;;;;;;;;;;5031270;28;20132;-88
2022/12/21 01:27:55;;;;;;;21.77;10.25;;;;;;;;;;5048047;28;20047;-88
2022/12/21 01:30:20;;;;;;;22.58;10.93;;;;;;;;;;5031255;28;20380;-89
2022/12/21 01:32:46;;;;;;;20.77;10.98;;;;;;;;;;5031273;28;20035;-88
2022/12/21 01:35:11;;;;;;;25.08;11.13;;;;;;;;;;5029846;28;20136;-88
2022/12/21 01:37:36;;;;;;;17.00;9.15;;;;;;;;;;5030839;28;20077;-88
2022/12/21 01:40:01;;;;;;;20.13;10.68;;;;;;;;;;5048098;28;20018;-88
2022/12/21 01:42:27;;;;;;;26.67;11.65;;;;;;;;;;5031933;28;20017;-89
2022/12/21 01:44:59;;;;;;;22.27;10.50;;;;;;;;;;5031170;28;20369;-87
2022/12/21 01:47:28;;;;;;;21.85;11.05;;;;;;;;;;5029865;28;20049;-88
2022/12/21 01:49:56;;;;;;;19.13;10.80;;;;;;;;;;5030532;28;20123;-88
2022/12/21 01:52:22;;;;;;;22.33;10.63;;;;;;;;;;5030485;28;20091;-87
2022/12/21 01:54:50;;;;;;;21.65;10.70;;;;;;;;;;5030925;28;20030;-88
2022/12/21 01:57:16;;;;;;;16.80;9.23;;;;;;;;;;5031511;28;20017;-88
2022/12/21 01:59:43;;;;;;;22.88;10.45;;;;;;;;;;5046298;28;20503;-88
2022/12/21 02:02:13;;;;;;;24.17;11.77;;;;;;;;;;5031997;28;20018;-88
2022/12/21 02:04:39;;;;;;;26.75;12.48;;;;;;;;;;5030631;28;20018;-88
2022/12/21 02:07:04;;;;;;;26.23;11.98;;;;;;;;;;5030558;28;20017;-88
2022/12/21 02:09:31;;;;;;;26.33;12.23;;;;;;;;;;5029879;28;20029;-88
2022/12/21 02:11:57;;;;;;;26.58;12.73;;;;;;;;;;5030547;28;20024;-88
2022/12/21 02:14:22;;;;;;;25.95;12.55;;;;;;;;;;5030663;28;20013;-88
2022/12/21 02:17:02;;;;;;;30.42;13.38;;;;;;;;;;5029599;28;20020;-88
2022/12/21 02:19:37;;;;;;;25.98;12.80;;;;;;;;;;5047667;28;20028;-88
2022/12/21 02:22:05;;;;;;;24.05;11.32;;;;;;;;;;5030223;28;20684;-88
2022/12/21 02:24:34;;;;;;;22.90;12.25;;;;;;;;;;5030779;28;20199;-88
2022/12/21 02:27:17;;;;;;;20.33;10.20;;;;;;;;;;5031795;28;20369;-88
2022/12/21 02:29:55;;;;;;;23.63;11.00;;;;;;;;;;5030879;28;20075;-88
2022/12/21 02:32:23;;;;;;;23.25;11.73;;;;;;;;;;5033849;28;20033;-88
2022/12/21 02:35:00;;;;;;;22.58;11.68;;;;;;;;;;5047164;28;20022;-89
2022/12/21 02:37:29;;;;;;;27.13;11.98;;;;;;;;;;5034196;28;20006;-88
2022/12/21 02:40:10;;;;;;;29.45;11.90;;;;;;;;;;5030697;28;20139;-88
2022/12/21 02:45:47;;;;;;;26.70;13.23;;;;;;;;;;5031964;28;20384;-87
2022/12/21 02:48:31;;;;;;;24.80;11.52;;;;;;;;;;5030666;28;20040;-88
2022/12/21 02:50:59;;;;;;;21.13;10.75;;;;;;;;;;5030491;28;20104;-89
2022/12/21 02:53:30;;;;;;;23.33;10.50;;;;;;;;;;5030806;28;20116;-89
2022/12/21 02:55:55;;;;;;;21.20;11.00;;;;;;;;;;5029916;28;20372;-90
2022/12/21 02:58:22;;;;;;;30.85;8.95;;;;;;;;;;5030605;28;20116;-89
2022/12/21 03:00:50;;;;;;;19.27;7.80;;;;;;;;;;5050041;28;20096;-90
2022/12/21 03:03:49;;;;;;;19.33;7.45;;;;;;;;;;5037148;28;20399;-90
2022/12/21 03:06:50;;;;;;;18.05;7.90;;;;;;;;;;5035285;28;20018;-90
2022/12/21 03:09:18;;;;;;;15.90;7.22;;;;;;;;;;5051008;28;20044;-90
2022/12/21 03:11:49;;;;;;;18.92;7.75;;;;;;;;;;5040171;28;20448;-90
2022/12/21 03:14:33;;;;;;;14.60;7.00;;;;;;;;;;5028968;28;20032;-90
2022/12/21 03:17:03;;;;;;;20.30;7.95;;;;;;;;;;5043581;28;20117;-89
2022/12/21 03:19:33;;;;;;;15.52;7.00;;;;;;;;;;5049833;28;20029;-90
2022/12/21 03:21:58;;;;;;;18.75;7.30;;;;;;;;;;5035146;28;20488;-89
2022/12/21 03:24:28;;;;;;;14.15;7.22;;;;;;;;;;5034059;28;20087;-90
2022/12/21 03:27:00;;;;;;;15.95;7.10;;;;;;;;;;5035065;28;20468;-90
2022/12/21 03:29:30;;;;;;;17.45;7.05;;;;;;;;;;5037319;28;20040;-90
2022/12/21 03:31:59;;;;;;;12.65;6.05;;;;;;;;;;5049363;28;20051;-90
2022/12/21 03:34:35;;;;;;;16.05;5.57;;;;;;;;;;5035005;28;20032;-91
2022/12/21 03:37:13;;;;;;;14.15;6.13;;;;;;;;;;5033205;28;20109;-90
2022/12/21 03:39:42;;;;;;;13.27;6.32;;;;;;;;;;5046738;28;20427;-90
2022/12/21 03:42:13;;;;;;;11.82;5.45;;;;;;;;;;5027900;28;20466;-89
2022/12/21 03:44:40;;;;;;;9.75;5.00;;;;;;;;;;5047191;28;20025;-90
2022/12/21 03:47:09;;;;;;;11.40;5.50;;;;;;;;;;5041959;28;20022;-90
2022/12/21 03:49:40;;;;;;;16.23;6.32;;;;;;;;;;5049760;28;20016;-89
2022/12/21 03:52:07;;;;;;;11.63;5.43;;;;;;;;;;5034071;28;20467;-89
2022/12/21 03:54:40;;;;;;;14.55;5.82;;;;;;;;;;5049896;28;20022;-89
2022/12/21 03:57:06;;;;;;;11.65;5.50;;;;;;;;;;5048346;28;20017;-90
2022/12/21 03:59:32;;;;;;;12.10;6.05;;;;;;;;;;5049806;28;20534;-89
2022/12/21 04:02:00;;;;;;;12.75;5.63;;;;;;;;;;5034502;28;20092;-89
2022/12/21 04:04:48;;;;;;;8.57;4.22;;;;;;;;;;5049832;28;20025;-90
2022/12/21 04:07:15;;;;;;;9.45;4.63;;;;;;;;;;5022396;28;20099;-90
2022/12/21 04:09:40;;;;;;;8.90;3.83;;;;;;;;;;5033130;28;20321;-90
2022/12/21 04:14:49;;;;;;;8.55;3.92;;;;;;;;;;5034442;28;20136;-90
2022/12/21 04:17:15;;;;;;;8.25;3.80;;;;;;;;;;5032223;28;20053;-90
2022/12/21 04:19:58;;;;;;;10.13;3.85;;;;;;;;;;5033877;28;20044;-90
2022/12/21 04:28:08;;;;;;;15.75;5.05;;;;;;;;;;5034253;28;20098;-90
2022/12/21 04:30:34;;;;;;;11.52;4.18;;;;;;;;;;5045248;28;20072;-90
2022/12/21 04:32:59;;;;;;;8.10;4.00;;;;;;;;;;5036217;28;20032;-90
2022/12/21 04:35:24;;;;;;;9.25;4.10;;;;;;;;;;5029573;28;20081;-90
2022/12/21 04:37:49;;;;;;;13.43;4.55;;;;;;;;;;5048315;28;20423;-90
2022/12/21 04:40:15;;;;;;;11.57;4.53;;;;;;;;;;5049125;28;20021;-90
2022/12/21 04:42:40;;;;;;;14.55;4.35;;;;;;;;;;5032395;28;20017;-89
2022/12/21 04:45:05;;;;;;;9.48;3.95;;;;;;;;;;5032529;28;20029;-90
2022/12/21 04:47:30;;;;;;;9.30;3.97;;;;;;;;;;5048902;28;20039;-90
2022/12/21 04:49:56;;;;;;;10.75;4.05;;;;;;;;;;5031991;28;20029;-90
2022/12/21 04:52:21;;;;;;;9.20;4.15;;;;;;;;;;5032997;28;20178;-90
2022/12/21 04:54:46;;;;;;;10.77;4.30;;;;;;;;;;5032423;28;20539;-90
2022/12/21 04:57:11;;;;;;;9.40;4.38;;;;;;;;;;5048595;28;20018;-89
2022/12/21 04:59:37;;;;;;;7.75;4.03;;;;;;;;;;5048663;28;20021;-90
2022/12/21 05:02:02;;;;;;;11.93;4.85;;;;;;;;;;5031534;28;20049;-90
2022/12/21 05:04:27;;;;;;;10.70;4.65;;;;;;;;;;5031947;28;20021;-90
2022/12/21 05:06:54;;;;;;;8.05;4.35;;;;;;;;;;5031749;28;20059;-90
2022/12/21 05:09:19;;;;;;;16.02;5.38;;;;;;;;;;5032033;28;20487;-90
2022/12/21 05:11:45;;;;;;;13.95;4.72;;;;;;;;;;5033002;28;20021;-88
2022/12/21 05:14:10;;;;;;;9.80;4.47;;;;;;;;;;5047321;28;20023;-90
2022/12/21 05:16:38;;;;;;;9.88;5.20;;;;;;;;;;5032832;28;20017;-90
2022/12/21 05:19:03;;;;;;;10.43;4.25;;;;;;;;;;5048367;28;20071;-89
2022/12/21 05:21:29;;;;;;;13.05;4.85;;;;;;;;;;5032680;28;20018;-89
2022/12/21 05:23:54;;;;;;;11.10;4.72;;;;;;;;;;5048500;28;20041;-89
2022/12/21 05:26:19;;;;;;;10.43;5.20;;;;;;;;;;5031942;28;20025;-90
2022/12/21 05:28:45;;;;;;;11.85;5.05;;;;;;;;;;5031853;28;20080;-89
2022/12/21 05:31:10;;;;;;;17.85;5.45;;;;;;;;;;5048245;28;20021;-90
2022/12/21 05:33:36;;;;;;;10.32;5.05;;;;;;;;;;5032994;28;20389;-89
2022/12/21 05:36:02;;;;;;;11.07;5.55;;;;;;;;;;5048449;28;20053;-90
2022/12/21 05:38:28;;;;;;;11.52;5.00;;;;;;;;;;5031265;28;20028;-90
2022/12/21 05:40:53;;;;;;;8.95;4.40;;;;;;;;;;5031298;28;20014;-89
2022/12/21 05:43:18;;;;;;;16.40;5.10;;;;;;;;;;5031556;28;20526;-90
2022/12/21 05:45:43;;;;;;;12.32;5.50;;;;;;;;;;5047874;28;20341;-89
2022/12/21 05:48:09;;;;;;;13.35;5.20;;;;;;;;;;5032722;28;20013;-90
2022/12/21 05:50:34;;;;;;;14.48;5.35;;;;;;;;;;5031413;28;20129;-89
2022/12/21 05:52:59;;;;;;;14.80;6.00;;;;;;;;;;5031513;28;20315;-90
2022/12/21 05:55:25;;;;;;;14.32;5.82;;;;;;;;;;5030947;28;20079;-89
2022/12/21 05:57:50;;;;;;;18.27;6.10;;;;;;;;;;5033570;28;20465;-89
2022/12/21 06:00:15;;;;;;;24.13;6.72;;;;;;;;;;5047822;28;20509;-89
2022/12/21 06:02:40;;;;;;;17.00;6.65;;;;;;;;;;5031384;28;20018;-90
2022/12/21 06:05:06;;;;;;;13.35;6.63;;;;;;;;;;5039037;28;20022;-89
2022/12/21 06:07:31;;;;;;;11.90;5.65;;;;;;;;;;5039185;28;20353;-90
2022/12/21 06:09:56;;;;;;;19.58;6.32;;;;;;;;;;5031368;28;20017;-90
2022/12/21 06:12:22;;;;;;;19.75;6.38;;;;;;;;;;5029828;28;20024;-89
2022/12/21 06:14:47;;;;;;;18.02;6.07;;;;;;;;;;5030915;28;20022;-89
2022/12/21 06:17:12;;;;;;;17.45;6.30;;;;;;;;;;5047490;28;20047;-88
2022/12/21 06:19:37;;;;;;;15.95;6.93;;;;;;;;;;5047942;28;20515;-89
2022/12/21 06:22:02;;;;;;;14.98;7.00;;;;;;;;;;5031933;28;20021;-88
2022/12/21 06:24:28;;;;;;;16.27;6.72;;;;;;;;;;5046846;28;20037;-88
2022/12/21 06:26:53;;;;;;;18.15;7.07;;;;;;;;;;5031806;28;20443;-89
2022/12/21 06:29:19;;;;;;;16.85;6.03;;;;;;;;;;5047542;28;20072;-89
2022/12/21 06:31:44;;;;;;;14.25;6.30;;;;;;;;;;5047494;28;20025;-89
2022/12/21 06:34:10;;;;;;;21.58;6.30;;;;;;;;;;5030598;28;20025;-89
2022/12/21 06:36:35;;;;;;;19.95;6.35;;;;;;;;;;5034437;28;20087;-89
2022/12/21 06:39:00;;;;;;;21.38;6.45;;;;;;;;;;5035801;28;20492;-89
2022/12/21 06:41:26;;;;;;;18.90;6.90;;;;;;;;;;5051187;28;20047;-89
2022/12/21 06:43:51;;;;;;;16.45;6.47;;;;;;;;;;5035619;28;20021;-89
2022/12/21 06:46:17;;;;;;;16.13;6.65;;;;;;;;;;5041849;28;20021;-88
2022/12/21 06:48:42;;;;;;;18.40;6.93;;;;;;;;;;5034302;28;20019;-89
2022/12/21 06:51:12;;;;;;;23.27;9.07;;;;;;;;;;5033948;28;20026;-88
2022/12/21 06:53:38;;;;;;;28.75;12.93;;;;;;;;;;5051105;28;20176;-90
2022/12/21 06:56:05;;;;;;;31.77;14.52;;;;;;;;;;5035018;28;20349;-89
2022/12/21 06:58:31;;;;;;;29.80;13.88;;;;;;;;;;5035143;28;20096;-89
2022/12/21 07:00:56;;;;;;;21.35;7.00;;;;;;;;;;5035284;28;20100;-89
2022/12/21 07:03:22;;;;;;;18.30;6.30;;;;;;;;;;5049773;28;20029;-89
2022/12/21 07:05:48;;;;;;;18.48;6.78;;;;;;;;;;5035151;28;20104;-89
2022/12/21 07:08:13;;;;;;;19.48;6.60;;;;;;;;;;5050403;28;20479;-89
2022/12/21 07:10:38;;;;;;;12.68;6.32;;;;;;;;;;5035421;28;20026;-89
2022/12/21 07:13:04;;;;;;;17.75;7.07;;;;;;;;;;5033052;28;20024;-89
2022/12/21 07:15:31;;;;;;;21.30;6.50;;;;;;;;;;5050365;28;20032;-89
2022/12/21 07:17:56;;;;;;;22.27;6.80;;;;;;;;;;5034812;28;20087;-89
2022/12/21 07:20:22;;;;;;;22.40;6.15;;;;;;;;;;5033617;28;20025;-88
2022/12/21 07:22:47;;;;;;;16.40;6.13;;;;;;;;;;5050148;28;20527;-88
2022/12/21 07:25:12;;;;;;;19.13;5.85;;;;;;;;;;5049357;28;20026;-89
2022/12/21 07:27:37;;;;;;;14.65;5.53;;;;;;;;;;5033549;28;20025;-89
2022/12/21 07:30:02;;;;;;;20.85;6.03;;;;;;;;;;5050677;28;20029;-89
2022/12/21 07:32:28;;;;;;;16.05;6.55;;;;;;;;;;5050265;28;20045;-88
2022/12/21 07:34:53;;;;;;;23.45;7.70;;;;;;;;;;5050049;28;20465;-88
2022/12/21 07:37:18;;;;;;;16.60;6.40;;;;;;;;;;5033836;28;20017;-89
2022/12/21 07:39:43;;;;;;;20.27;5.80;;;;;;;;;;5034801;28;20055;-89
2022/12/21 07:42:08;;;;;;;19.30;6.35;;;;;;;;;;5049681;28;20432;-89
2022/12/21 07:44:34;;;;;;;18.00;5.83;;;;;;;;;;5048745;28;20053;-88
2022/12/21 07:46:59;;;;;;;17.93;5.23;;;;;;;;;;5041803;28;20462;-89
2022/12/21 07:49:24;;;;;;;14.20;5.10;;;;;;;;;;5033736;28;20053;-89
2022/12/21 07:51:50;;;;;;;15.77;4.28;;;;;;;;;;5048808;28;20465;-89
2022/12/21 07:54:15;;;;;;;12.70;5.80;;;;;;;;;;5033338;28;20096;-89
2022/12/21 07:56:40;;;;;;;16.83;4.82;;;;;;;;;;5049516;28;20079;-89
2022/12/21 07:59:05;;;;;;;14.63;5.07;;;;;;;;;;5049508;28;20017;-89
2022/12/21 08:01:30;;;;;;;16.48;4.53;;;;;;;;;;5046970;28;20429;-88
2022/12/21 08:04:00;;;;;;;18.98;5.00;;;;;;;;;;5032914;28;20020;-88
2022/12/21 08:06:25;;;;;;;11.77;4.35;;;;;;;;;;5032984;28;20017;-88
2022/12/21 08:08:50;;;;;;;19.00;5.00;;;;;;;;;;5049518;28;20037;-88
2022/12/21 08:11:17;;;;;;;17.77;5.18;;;;;;;;;;5048801;28;20128;-88
2022/12/21 08:13:43;;;;;;;14.37;4.70;;;;;;;;;;5031320;28;20688;-88
2022/12/21 08:16:08;;;;;;;18.50;4.90;;;;;;;;;;5025771;28;20025;-87
2022/12/21 08:18:34;;;;;;;24.15;5.30;;;;;;;;;;5035608;28;20025;-86
2022/12/21 08:20:59;;;;;;;15.98;5.20;;;;;;;;;;5037455;28;20049;-86
2022/12/21 08:23:24;;;;;;;15.90;4.72;;;;;;;;;;5028239;28;20014;-86
2022/12/21 08:25:50;;;;;;;26.27;6.47;;;;;;;;;;5047632;28;20390;-87
2022/12/21 08:28:15;;;;;;;15.82;5.35;;;;;;;;;;5025584;28;20112;-86
2022/12/21 08:30:41;;;;;;;14.40;5.82;;;;;;;;;;5031088;28;20192;-88
2022/12/21 08:33:06;;;;;;;19.83;6.90;;;;;;;;;;5028711;28;20026;-89
2022/12/21 08:35:31;;;;;;;16.13;5.20;;;;;;;;;;5027616;28;20021;-89
2022/12/21 08:37:57;;;;;;;18.60;5.45;;;;;;;;;;5033360;28;20017;-88
2022/12/21 08:40:22;;;;;;;18.75;5.80;;;;;;;;;;5026474;28;20071;-89
2022/12/21 08:42:47;;;;;;;26.63;7.43;;;;;;;;;;5031248;28;20489;-88
2022/12/21 08:45:12;;;;;;;23.63;7.60;;;;;;;;;;5032476;28;20162;-89
2022/12/21 08:47:38;;;;;;;18.52;7.53;;;;;;;;;;5032752;28;20025;-88
2022/12/21 08:50:04;;;;;;;16.98;7.28;;;;;;;;;;5042247;28;20021;-89
2022/12/21 08:52:29;;;;;;;16.33;7.20;;;;;;;;;;5022546;28;21366;-89
2022/12/21 08:54:54;;;;;;;17.45;5.90;;;;;;;;;;5027587;28;20111;-89
2022/12/21 08:57:19;;;;;;;15.23;5.97;;;;;;;;;;5027935;28;20469;-91
2022/12/21 08:59:45;;;;;;;19.33;6.82;;;;;;;;;;5029153;28;20025;-88
2022/12/21 09:02:10;;;;;;;17.20;6.15;;;;;;;;;;5031831;28;20492;-88
2022/12/21 09:04:35;;;;;;;27.30;7.55;;;;;;;;;;5027943;28;20125;-90
2022/12/21 09:07:00;;;;;;;21.75;6.55;;;;;;;;;;5029212;28;20127;-89
2022/12/21 09:09:26;;;;;;;17.35;6.90;;;;;;;;;;5027070;28;20026;-89
2022/12/21 09:11:51;;;;;;;22.75;6.80;;;;;;;;;;5048061;28;20025;-91
2022/12/21 09:14:17;;;;;;;22.55;7.60;;;;;;;;;;5030507;28;20132;-89
2022/12/21 09:16:42;;;;;;;30.23;8.95;;;;;;;;;;5028989;28;20033;-91
2022/12/21 09:19:07;;;;;;;22.42;6.90;;;;;;;;;;5032017;28;20024;-90
2022/12/21 09:21:33;;;;;;;31.02;8.52;;;;;;;;;;5031779;28;20104;-90
2022/12/21 09:23:58;;;;;;;28.42;9.18;;;;;;;;;;5032787;28;20005;-89
2022/12/21 09:26:23;;;;;;;29.05;9.13;;;;;;;;;;5044606;28;20028;-86
2022/12/21 09:28:49;;;;;;;48.50;12.83;;;;;;;;;;5029391;28;20021;-89
2022/12/21 09:31:16;;;;;;;40.92;13.32;;;;;;;;;;5028483;28;20484;-89
2022/12/21 09:33:42;;;;;;;31.48;9.63;;;;;;;;;;5042712;28;20091;-88
2022/12/21 09:36:08;;;;;;;24.88;8.45;;;;;;;;;;5038925;28;20033;-90
2022/12/21 09:38:33;;;;;;;21.65;6.78;;;;;;;;;;5028503;28;20024;-87
2022/12/21 09:41:18;;;;;;;19.63;7.30;;;;;;;;;;5033949;28;20021;-89
2022/12/21 09:43:49;;;;;;;18.88;6.03;;;;;;;;;;5028986;28;20076;-89
2022/12/21 09:46:14;;;;;;;24.80;6.93;;;;;;;;;;5026306;28;20017;-90
2022/12/21 09:48:39;;;;;;;21.55;7.57;;;;;;;;;;5029465;28;20121;-89
2022/12/21 09:51:09;;;;;;;22.25;6.95;;;;;;;;;;5028435;28;20021;-89
2022/12/21 09:53:47;;;;;;;20.67;6.55;;;;;;;;;;5022670;28;20034;-88
2022/12/21 09:56:16;;;;;;;29.23;7.80;;;;;;;;;;5025544;28;20040;-88
2022/12/21 09:58:43;;;;;;;23.55;7.03;;;;;;;;;;5025578;28;20108;-87
2022/12/21 10:01:26;;;;;;;23.33;7.15;;;;;;;;;;5027310;28;20096;-87
2022/12/21 10:04:10;;;;;;;25.70;7.10;;;;;;;;;;5028916;28;20017;-87
2022/12/21 10:06:35;;;;;;;27.27;7.50;;;;;;;;;;5035878;28;20454;-87
2022/12/21 10:09:09;;;;;;;26.65;7.63;;;;;;;;;;5030108;28;20029;-87
2022/12/21 10:11:40;;;;;;;16.75;6.07;;;;;;;;;;5033670;28;20030;-85
2022/12/21 10:14:11;;;;;;;22.08;6.30;;;;;;;;;;5031705;28;20022;-89
2022/12/21 10:16:59;;;;;;;17.52;6.65;;;;;;;;;;5033670;28;20048;-87
2022/12/21 10:19:34;;;;;;;21.02;6.88;;;;;;;;;;5030171;28;20435;-89
2022/12/21 10:21:59;;;;;;;22.85;6.13;;;;;;;;;;5031047;28;20021;-90
2022/12/21 10:24:27;;;;;;;22.73;6.18;;;;;;;;;;5034123;28;20133;-89
2022/12/21 10:26:58;;;;;;;18.20;5.72;;;;;;;;;;5039909;28;20021;-89
2022/12/21 10:29:28;;;;;;;16.80;6.00;;;;;;;;;;5043804;28;20050;-87
2022/12/21 10:31:54;;;;;;;18.70;6.20;;;;;;;;;;5046556;28;20392;-88
2022/12/21 10:34:33;;;;;;;19.08;6.22;;;;;;;;;;5047832;28;20105;-88
2022/12/21 10:36:59;;;;;;;18.42;6.82;;;;;;;;;;5049530;28;20033;-87
2022/12/21 10:39:25;;;;;;;23.60;6.82;;;;;;;;;;5043760;28;20091;-87
2022/12/21 10:42:02;;;;;;;25.08;7.43;;;;;;;;;;5031933;28;20488;-86
2022/12/21 10:44:27;;;;;;;21.65;6.93;;;;;;;;;;5018037;28;20112;-86
2022/12/21 10:46:53;;;;;;;21.50;8.05;;;;;;;;;;5042092;28;20376;-88
2022/12/21 10:49:22;;;;;;;24.58;7.72;;;;;;;;;;5048436;28;20029;-88
2022/12/21 10:51:47;;;;;;;22.50;7.30;;;;;;;;;;5033391;28;20018;-88
2022/12/21 10:54:13;;;;;;;20.55;8.63;;;;;;;;;;5039585;28;20025;-88
2022/12/21 10:56:46;;;;;;;17.52;7.32;;;;;;;;;;5025080;28;20717;-86
2022/12/21 10:59:14;;;;;;;20.98;8.70;;;;;;;;;;5046146;28;20104;-86
2022/12/21 11:01:39;;;;;;;24.77;8.27;;;;;;;;;;5031459;28;20021;-85
2022/12/21 11:04:06;;;;;;;23.52;8.32;;;;;;;;;;5054972;28;20024;-87
2022/12/21 11:06:31;;;;;;;17.67;7.15;;;;;;;;;;5026674;28;20048;-88
2022/12/21 11:08:57;;;;;;;18.63;6.90;;;;;;;;;;5024879;28;20373;-86
2022/12/21 11:11:33;;;;;;;20.38;6.97;;;;;;;;;;5026311;28;20630;-87
2022/12/21 11:14:03;;;;;;;19.00;7.38;;;;;;;;;;5032094;28;20026;-86
2022/12/21 11:16:29;;;;;;;12.85;4.93;;;;;;;;;;5031765;28;20450;-86
2022/12/21 11:18:57;;;;;;;13.57;5.55;;;;;;;;;;5032602;28;20104;-87
2022/12/21 11:21:30;;;;;;;16.75;6.18;;;;;;;;;;5047439;28;20032;-87
2022/12/21 11:23:57;;;;;;;12.30;6.55;;;;;;;;;;5026838;28;20098;-86
2022/12/21 11:26:25;;;;;;;14.32;4.75;;;;;;;;;;5043615;28;20025;-86
2022/12/21 11:28:50;;;;;;;18.33;5.50;;;;;;;;;;5045438;28;20074;-87
2022/12/21 11:31:15;;;;;;;16.23;5.18;;;;;;;;;;5038589;28;20396;-84
2022/12/21 11:33:43;;;;;;;13.18;4.88;;;;;;;;;;5033054;28;20634;-84
2022/12/21 11:36:14;;;;;;;20.70;6.25;;;;;;;;;;5044598;28;20033;-83
2022/12/21 11:38:40;;;;;;;15.15;4.97;;;;;;;;;;5032900;28;20056;-83
2022/12/21 11:41:20;;;;;;;18.48;7.05;;;;;;;;;;5029057;28;20032;-83
2022/12/21 11:43:46;;;;;;;30.98;9.55;;;;;;;;;;5044194;28;20116;-83
2022/12/21 11:46:26;;;;;;;11.50;5.10;;;;;;;;;;5044574;28;20025;-83
2022/12/21 11:49:04;;;;;;;15.82;5.82;;;;;;;;;;5030152;28;20476;-84
2022/12/21 11:51:48;;;;;;;8.55;4.85;;;;;;;;;;5046490;28;20033;-83
2022/12/21 11:54:32;;;;;;;23.17;6.80;;;;;;;;;;5043854;28;20028;-84
2022/12/21 11:57:30;;;;;;;16.35;6.75;;;;;;;;;;5029143;28;20104;-83
2022/12/21 11:59:55;;;;;;;18.30;5.60;;;;;;;;;;5039844;28;20635;-83
2022/12/21 12:02:33;;;;;;;21.48;7.20;;;;;;;;;;5041316;28;20025;-84
2022/12/21 12:05:01;;;;;;;15.70;6.57;;;;;;;;;;5043431;28;20018;-85
2022/12/21 12:07:33;;;;;;;18.83;6.78;;;;;;;;;;5027187;28;20021;-84
2022/12/21 12:09:58;;;;;;;12.48;5.13;;;;;;;;;;5030463;28;20060;-84
2022/12/21 12:12:56;;;;;;;14.52;6.30;;;;;;;;;;5031378;28;20021;-83
2022/12/21 12:15:24;;;;;;;10.18;4.80;;;;;;;;;;5044135;28;20048;-84
2022/12/21 12:17:55;;;;;;;14.07;6.28;;;;;;;;;;5043546;28;20077;-84
2022/12/21 12:20:40;;;;;;;12.20;5.20;;;;;;;;;;5047057;28;20071;-84
2022/12/21 12:23:11;;;;;;;14.07;6.47;;;;;;;;;;5036278;28;20022;-84
2022/12/21 12:25:36;;;;;;;9.30;4.70;;;;;;;;;;5034062;28;20055;-84
2022/12/21 12:28:04;;;;;;;15.38;5.03;;;;;;;;;;5038816;28;20029;-83
2022/12/21 12:30:50;;;;;;;9.98;4.75;;;;;;;;;;5027981;28;20856;-84
2022/12/21 12:33:34;;;;;;;15.75;5.97;;;;;;;;;;5023761;28;20025;-84
2022/12/21 12:36:18;;;;;;;11.40;5.10;;;;;;;;;;5045236;28;20786;-84
2022/12/21 12:38:43;;;;;;;13.15;5.03;;;;;;;;;;5031455;28;20036;-83
2022/12/21 12:41:18;;;;;;;17.95;4.65;;;;;;;;;;5041901;28;20033;-83
2022/12/21 12:43:53;;;;;;;17.70;5.97;;;;;;;;;;5024197;28;20021;-82
2022/12/21 12:46:24;;;;;;;13.30;5.40;;;;;;;;;;5037877;28;20117;-83
2022/12/21 12:48:52;;;;;;;14.57;5.55;;;;;;;;;;5026062;28;20108;-84
2022/12/21 12:51:24;;;;;;;15.45;5.53;;;;;;;;;;5041087;28;20032;-84
2022/12/21 12:53:55;;;;;;;12.07;5.10;;;;;;;;;;5034234;28;20021;-84
2022/12/21 12:56:29;;;;;;;12.85;5.88;;;;;;;;;;5027850;28;20030;-84
2022/12/21 12:59:09;;;;;;;11.85;5.18;;;;;;;;;;5037452;28;20058;-83
2022/12/21 13:01:53;;;;;;;15.05;6.63;;;;;;;;;;5031003;28;20025;-84
2022/12/21 13:04:24;;;;;;;17.95;7.20;;;;;;;;;;5032633;28;20017;-85
2022/12/21 13:06:52;;;;;;;10.70;5.10;;;;;;;;;;5025298;28;20112;-84
2022/12/21 13:09:20;;;;;;;9.45;4.47;;;;;;;;;;5052088;28;20021;-84
2022/12/21 13:11:54;;;;;;;16.30;4.78;;;;;;;;;;5044575;28;20056;-85
2022/12/21 13:14:26;;;;;;;12.07;5.63;;;;;;;;;;5023282;28;20067;-84
2022/12/21 13:17:07;;;;;;;10.18;4.40;;;;;;;;;;5045149;28;20025;-84
2022/12/21 13:19:32;;;;;;;9.90;4.38;;;;;;;;;;5030228;28;20079;-85
2022/12/21 13:22:01;;;;;;;13.35;4.53;;;;;;;;;;5039787;28;20022;-83
2022/12/21 13:24:41;;;;;;;11.68;4.75;;;;;;;;;;5041864;28;20341;-84
2022/12/21 13:27:07;;;;;;;12.30;4.07;;;;;;;;;;5052326;28;20076;-83
2022/12/21 13:29:36;;;;;;;15.73;4.93;;;;;;;;;;5028866;28;20052;-84
2022/12/21 13:32:14;;;;;;;13.52;4.72;;;;;;;;;;5028447;28;20464;-83
2022/12/21 13:34:49;;;;;;;11.32;5.05;;;;;;;;;;5042888;28;20079;-84
2022/12/21 13:37:19;;;;;;;11.10;5.57;;;;;;;;;;5043705;28;20027;-83
2022/12/21 13:39:47;;;;;;;8.93;4.53;;;;;;;;;;5030461;28;20029;-84
2022/12/21 13:42:24;;;;;;;7.88;3.88;;;;;;;;;;5020159;28;20033;-84
2022/12/21 13:44:53;;;;;;;8.70;3.63;;;;;;;;;;5024179;28;20024;-84
2022/12/21 13:47:18;;;;;;;8.75;3.55;;;;;;;;;;5023286;28;20017;-82
2022/12/21 13:50:02;;;;;;;9.13;3.42;;;;;;;;;;5017676;28;20979;-83
2022/12/21 13:52:36;;;;;;;8.88;3.90;;;;;;;;;;5040065;28;20378;-84
2022/12/21 13:55:19;;;;;;;12.80;3.47;;;;;;;;;;5027823;28;20084;-83
2022/12/21 13:58:12;;;;;;;12.10;3.90;;;;;;;;;;5036890;28;20026;-81
2022/12/21 14:00:48;;;;;;;8.05;4.43;;;;;;;;;;5025580;28;20030;-84
2022/12/21 14:03:42;;;;;;;14.38;4.00;;;;;;;;;;5025082;28;20018;-82
2022/12/21 14:06:11;;;;;;;6.43;3.10;;;;;;;;;;5029648;28;20469;-83
2022/12/21 14:08:40;;;;;;;8.48;4.60;;;;;;;;;;5031077;28;20116;-83
2022/12/21 14:11:25;;;;;;;8.00;3.38;;;;;;;;;;5035918;28;20026;-83
2022/12/21 14:13:53;;;;;;;14.07;4.07;;;;;;;;;;5016404;28;20172;-82
2022/12/21 14:16:22;;;;;;;12.30;3.38;;;;;;;;;;5026335;28;20037;-83
2022/12/21 14:18:52;;;;;;;6.75;2.80;;;;;;;;;;5029185;28;20053;-84
2022/12/21 14:21:22;;;;;;;13.30;2.97;;;;;;;;;;5041038;28;20097;-83
2022/12/21 14:23:50;;;;;;;12.00;4.60;;;;;;;;;;5027036;28;20022;-89
2022/12/21 14:26:33;;;;;;;16.20;3.10;;;;;;;;;;5020343;28;20030;-88
2022/12/21 14:29:11;;;;;;;9.70;2.90;;;;;;;;;;5039574;28;20021;-89
2022/12/21 14:31:46;;;;;;;14.63;3.47;;;;;;;;;;5042955;28;20095;-89
2022/12/21 14:34:13;;;;;;;7.28;2.50;;;;;;;;;;5040129;28;20465;-90
2022/12/21 14:36:38;;;;;;;8.98;3.22;;;;;;;;;;5032050;28;20428;-86
2022/12/21 14:39:10;;;;;;;5.50;2.42;;;;;;;;;;5030314;28;20025;-86
2022/12/21 14:41:36;;;;;;;10.25;3.40;;;;;;;;;;5023193;28;20022;-84
2022/12/21 14:44:14;;;;;;;4.70;2.50;;;;;;;;;;5028105;28;20074;-84
2022/12/21 14:46:59;;;;;;;9.18;2.97;;;;;;;;;;5042250;28;20030;-85
2022/12/21 14:49:29;;;;;;;10.35;3.05;;;;;;;;;;5028300;28;20036;-85